createdAt,value
2018-02-06T00:01:36.457Z,-0.70
2018-02-06T00:04:03.930Z,-0.71
2018-02-06T00:06:31.392Z,-0.72
2018-02-06T00:08:58.806Z,-0.69
2018-02-06T00:11:26.221Z,-0.71
2018-02-06T00:13:53.641Z,-0.77
2018-02-06T00:16:21.061Z,-0.78
2018-02-06T00:18:48.481Z,-0.87
2018-02-06T00:21:15.909Z,-0.81
2018-02-06T00:23:43.325Z,-0.82
2018-02-06T00:26:10.750Z,-0.82
2018-02-06T00:28:38.165Z,-0.83
2018-02-06T00:31:05.581Z,-0.84
2018-02-06T00:33:33.010Z,-0.86
2018-02-06T00:36:00.429Z,-0.84
2018-02-06T00:38:27.845Z,-0.86
2018-02-06T00:40:55.279Z,-0.86
2018-02-06T00:43:22.701Z,-0.93
2018-02-06T00:45:50.125Z,-0.92
2018-02-06T00:48:17.542Z,-0.98
2018-02-06T00:50:44.957Z,-0.96
2018-02-06T00:53:12.378Z,-0.99
2018-02-06T00:55:39.793Z,-1.01
2018-02-06T00:58:07.224Z,-1.02
2018-02-06T01:00:34.634Z,-1.01
2018-02-06T01:03:02.049Z,-0.99
2018-02-06T01:05:29.469Z,-1.00
2018-02-06T01:07:56.910Z,-1.06
2018-02-06T01:10:24.333Z,-1.03
2018-02-06T01:12:51.753Z,-0.94
2018-02-06T01:15:19.170Z,-0.94
2018-02-06T01:17:46.601Z,-0.98
2018-02-06T01:20:14.019Z,-0.97
2018-02-06T01:22:41.433Z,-1.00
2018-02-06T01:25:08.855Z,-1.05
2018-02-06T01:27:36.274Z,-1.07
2018-02-06T01:30:03.685Z,-1.00
2018-02-06T01:32:31.106Z,-1.01
2018-02-06T01:34:58.526Z,-0.94
2018-02-06T01:37:25.941Z,-1.00
2018-02-06T01:39:53.372Z,-1.00
2018-02-06T01:42:20.785Z,-1.06
2018-02-06T01:44:48.221Z,-1.07
2018-02-06T01:47:15.642Z,-1.09
2018-02-06T01:49:49.541Z,-1.04
2018-02-06T01:52:16.968Z,-1.09
2018-02-06T01:54:44.398Z,-1.04
2018-02-06T01:57:11.825Z,-1.03
2018-02-06T01:59:39.241Z,-0.95
2018-02-06T02:02:06.661Z,-0.98
2018-02-06T02:04:34.085Z,-0.98
2018-02-06T02:07:01.502Z,-0.94
2018-02-06T02:09:28.997Z,-0.96
2018-02-06T02:11:56.419Z,-0.97
2018-02-06T02:14:23.846Z,-0.97
2018-02-06T02:16:51.262Z,-0.93
2018-02-06T02:19:18.679Z,-0.91
2018-02-06T02:21:46.231Z,-0.93
2018-02-06T02:24:13.650Z,-0.95
2018-02-06T02:26:41.066Z,-0.93
2018-02-06T02:29:08.494Z,-0.96
2018-02-06T02:31:35.909Z,-0.93
2018-02-06T02:34:03.316Z,-0.94
2018-02-06T02:36:30.758Z,-0.97
2018-02-06T02:38:58.177Z,-0.83
2018-02-06T02:41:25.588Z,-0.82
2018-02-06T04:39:21.767Z,-0.07
2018-02-06T04:41:49.197Z,-0.06
2018-02-06T04:44:16.616Z,-0.19
2018-02-06T04:46:44.032Z,-0.23
2018-02-06T04:49:11.478Z,-0.22
2018-02-06T04:51:38.897Z,-0.15
2018-02-06T04:54:06.313Z,-0.14
2018-02-06T04:56:33.739Z,-0.13
2018-02-06T04:59:01.161Z,-0.09
2018-02-06T05:01:28.576Z,-0.15
2018-02-06T05:03:56.002Z,-0.14
2018-02-06T05:06:23.664Z,-0.17
2018-02-06T05:08:51.080Z,-0.05
2018-02-06T05:11:18.509Z,-0.09
2018-02-06T05:13:45.933Z,-0.18
2018-02-06T05:16:13.336Z,-0.20
2018-02-06T05:18:40.770Z,-0.24
2018-02-06T05:21:08.181Z,-0.18
2018-02-06T05:23:35.594Z,-0.20
2018-02-06T05:26:03.020Z,-0.24
2018-02-06T05:28:30.437Z,-0.26
2018-02-06T05:30:57.855Z,-0.28
2018-02-06T05:33:25.288Z,-0.22
2018-02-06T05:35:52.700Z,-0.13
2018-02-06T05:38:20.121Z,-0.17
2018-02-06T05:40:47.549Z,-0.09
2018-02-06T05:43:14.974Z,-0.13
2018-02-06T05:45:42.437Z,-0.09
2018-02-06T05:48:09.838Z,-0.12
2018-02-06T05:50:37.270Z,-0.09
2018-02-06T05:53:04.691Z,-0.09
2018-02-06T05:55:32.125Z,-0.05
2018-02-06T05:57:59.529Z,0.04
2018-02-06T06:00:26.940Z,0.01
2018-02-06T06:02:54.428Z,-0.02
2018-02-06T06:05:21.894Z,0.03
2018-02-06T06:07:49.289Z,0.00
2018-02-06T06:10:16.709Z,0.08
2018-02-06T06:12:44.121Z,0.09
2018-02-06T06:15:11.548Z,0.08
2018-02-06T06:17:38.965Z,0.10
2018-02-06T06:20:06.396Z,0.07
2018-02-06T06:22:33.833Z,0.08
2018-02-06T06:25:01.261Z,0.13
2018-02-06T06:27:28.713Z,0.23
2018-02-06T06:29:59.369Z,0.24
2018-02-06T06:32:26.797Z,0.22
2018-02-06T06:34:54.206Z,0.29
2018-02-06T06:37:21.633Z,0.29
2018-02-06T06:39:49.070Z,0.31
2018-02-06T06:42:16.526Z,0.24
2018-02-06T06:44:43.928Z,0.26
2018-02-06T06:47:11.361Z,0.11
2018-02-06T06:49:38.772Z,0.17
2018-02-06T06:52:06.196Z,0.17
2018-02-06T06:54:33.668Z,0.11
2018-02-06T06:57:01.165Z,0.10
2018-02-06T06:59:28.528Z,0.01
2018-02-06T07:01:56.508Z,-0.02
2018-02-06T07:04:23.949Z,-0.04
2018-02-06T07:06:51.428Z,-0.05
2018-02-06T07:09:18.841Z,-0.01
2018-02-06T07:11:46.270Z,-0.03
2018-02-06T07:14:13.690Z,0.01
2018-02-06T07:16:41.115Z,-0.01
2018-02-06T07:19:08.536Z,0.04
2018-02-06T07:21:35.941Z,0.10
2018-02-06T07:24:03.366Z,0.12
2018-02-06T07:26:30.772Z,0.00
2018-02-06T07:28:58.184Z,0.05
2018-02-06T07:31:25.604Z,0.11
2018-02-06T07:33:53.013Z,0.08
2018-02-06T07:36:20.421Z,0.13
2018-02-06T07:38:47.853Z,0.18
2018-02-06T07:41:15.264Z,0.12
2018-02-06T07:43:42.669Z,0.20
2018-02-06T07:46:10.096Z,0.21
2018-02-06T07:48:37.509Z,0.32
2018-02-06T07:51:04.926Z,0.39
2018-02-06T07:53:32.348Z,0.41
2018-02-06T07:55:59.764Z,0.49
2018-02-06T07:58:27.172Z,0.55
2018-02-06T08:00:54.596Z,0.68
2018-02-06T08:03:22.010Z,0.85
2018-02-06T08:05:49.420Z,0.99
2018-02-06T08:08:16.848Z,0.91
2018-02-06T08:10:44.252Z,0.98
2018-02-06T08:13:12.522Z,1.07
2018-02-06T08:15:39.937Z,1.08
2018-02-06T08:18:07.378Z,1.12
2018-02-06T08:20:34.808Z,1.14
2018-02-06T08:23:02.248Z,1.19
2018-02-06T08:25:29.666Z,1.27
2018-02-06T08:27:57.084Z,1.27
2018-02-06T08:30:24.531Z,1.25
2018-02-06T08:32:51.953Z,1.24
2018-02-06T08:35:19.379Z,1.35
2018-02-06T08:37:46.801Z,1.27
2018-02-06T08:40:14.234Z,1.36
2018-02-06T08:42:41.652Z,1.45
2018-02-06T08:45:09.083Z,1.55
2018-02-06T08:47:36.489Z,1.44
2018-02-06T08:50:03.905Z,1.38
2018-02-06T08:52:31.340Z,1.43
2018-02-06T08:54:58.753Z,1.52
2018-02-06T08:57:26.168Z,1.51
2018-02-06T08:59:53.600Z,1.46
2018-02-06T09:02:21.017Z,1.57
2018-02-06T09:04:48.441Z,1.55
2018-02-06T09:07:15.870Z,1.57
2018-02-06T09:09:43.285Z,1.55
2018-02-06T09:12:10.703Z,1.38
2018-02-06T09:14:38.132Z,1.41
2018-02-06T09:17:05.551Z,1.53
2018-02-06T09:19:32.973Z,1.55
2018-02-06T09:22:00.398Z,1.74
2018-02-06T09:24:27.814Z,1.78
2018-02-06T09:26:55.225Z,1.96
2018-02-06T09:29:22.655Z,2.19
2018-02-06T09:31:50.068Z,2.52
2018-02-06T09:34:17.480Z,2.88
2018-02-06T09:36:44.913Z,3.02
2018-02-06T09:39:12.333Z,3.20
2018-02-06T09:41:39.742Z,3.27
2018-02-06T09:44:07.176Z,3.23
2018-02-06T09:46:34.593Z,3.29
2018-02-06T09:49:02.016Z,3.18
2018-02-06T09:51:29.449Z,3.19
2018-02-06T09:53:56.870Z,3.15
2018-02-06T09:56:24.276Z,3.19
2018-02-06T09:58:51.718Z,3.19
2018-02-06T10:01:19.132Z,3.21
2018-02-06T10:03:46.549Z,3.06
2018-02-06T10:06:13.981Z,3.11
2018-02-06T10:08:41.398Z,2.95
2018-02-06T10:11:08.809Z,2.97
2018-02-06T10:13:36.238Z,3.09
2018-02-06T10:16:03.661Z,2.93
2018-02-06T10:18:31.100Z,2.92
2018-02-06T10:20:58.528Z,2.98
2018-02-06T10:23:25.948Z,3.00
2018-02-06T10:25:53.364Z,3.00
2018-02-06T10:28:20.793Z,3.01
2018-02-06T10:30:48.204Z,3.06
2018-02-06T10:33:15.628Z,3.03
2018-02-06T10:35:43.064Z,3.02
2018-02-06T10:38:10.481Z,3.01
2018-02-06T10:40:37.898Z,3.07
2018-02-06T10:43:05.327Z,3.04
2018-02-06T10:45:32.737Z,3.04
2018-02-06T10:48:00.152Z,3.00
2018-02-06T10:50:27.585Z,3.11
2018-02-06T10:52:54.986Z,3.02
2018-02-06T10:55:22.396Z,3.11
2018-02-06T10:57:49.833Z,3.16
2018-02-06T11:00:17.239Z,3.20
2018-02-06T11:02:44.658Z,2.86
2018-02-06T11:05:12.092Z,3.04
2018-02-06T11:07:39.508Z,3.13
2018-02-06T11:10:06.924Z,3.22
2018-02-06T11:12:34.357Z,3.22
2018-02-06T11:15:01.765Z,3.34
2018-02-06T11:17:29.184Z,3.30
2018-02-06T11:19:56.621Z,3.35
2018-02-06T11:22:24.034Z,3.39
2018-02-06T11:24:51.454Z,3.22
2018-02-06T11:27:18.880Z,3.17
2018-02-06T11:29:46.300Z,3.32
2018-02-06T11:32:13.699Z,3.13
2018-02-06T11:34:41.123Z,3.11
2018-02-06T11:37:08.528Z,3.12
2018-02-06T11:39:35.944Z,3.01
2018-02-06T11:42:03.373Z,3.13
2018-02-06T11:44:30.799Z,3.05
2018-02-06T11:46:58.217Z,3.12
2018-02-06T11:49:25.633Z,2.87
2018-02-06T11:51:53.069Z,3.01
2018-02-06T11:54:20.495Z,3.03
2018-02-06T11:56:47.953Z,3.11
2018-02-06T11:59:15.369Z,3.21
2018-02-06T12:01:42.791Z,3.23
2018-02-06T12:04:10.224Z,3.32
2018-02-06T12:06:37.643Z,3.38
2018-02-06T12:09:05.057Z,3.38
2018-02-06T12:11:32.516Z,3.41
2018-02-06T12:13:59.920Z,3.29
2018-02-06T12:16:27.330Z,3.37
2018-02-06T12:18:54.760Z,3.42
2018-02-06T12:21:22.208Z,3.43
2018-02-06T12:23:49.627Z,3.55
2018-02-06T12:26:17.053Z,3.68
2018-02-06T12:28:44.481Z,3.30
2018-02-06T12:31:11.905Z,3.43
2018-02-06T12:33:46.327Z,3.57
2018-02-06T12:36:13.744Z,3.36
2018-02-06T12:38:41.156Z,3.69
2018-02-06T12:41:08.588Z,3.81
2018-02-06T12:43:36.009Z,3.95
2018-02-06T12:46:03.424Z,4.02
2018-02-06T12:48:30.858Z,4.08
2018-02-06T12:50:58.269Z,4.09
2018-02-06T12:53:25.682Z,4.00
2018-02-06T12:55:53.112Z,3.84
2018-02-06T12:58:20.533Z,3.90
2018-02-06T13:00:47.944Z,3.97
2018-02-06T13:03:15.374Z,3.87
2018-02-06T13:05:42.771Z,3.89
2018-02-06T13:08:10.176Z,3.89
2018-02-06T13:10:37.604Z,3.70
2018-02-06T13:13:05.144Z,3.74
2018-02-06T13:15:32.573Z,3.81
2018-02-06T13:18:00.085Z,3.74
2018-02-06T13:20:27.495Z,3.80
2018-02-06T13:22:54.965Z,3.72
2018-02-06T13:25:22.399Z,3.69
2018-02-06T13:27:49.825Z,3.78
2018-02-06T13:30:17.283Z,3.72
2018-02-06T13:32:44.720Z,3.78
2018-02-06T13:35:12.133Z,3.82
2018-02-06T13:37:39.541Z,3.70
2018-02-06T13:40:08.012Z,3.85
2018-02-06T13:42:35.416Z,3.86
2018-02-06T13:45:02.824Z,3.73
2018-02-06T13:47:30.265Z,3.70
2018-02-06T13:49:57.712Z,3.77
2018-02-06T13:52:26.112Z,3.72
2018-02-06T13:54:53.885Z,3.81
2018-02-06T13:57:21.328Z,3.81
2018-02-06T13:59:48.755Z,3.91
2018-02-06T14:02:16.196Z,3.91
2018-02-06T14:04:43.973Z,3.84
2018-02-06T14:07:11.482Z,3.83
2018-02-06T14:09:38.896Z,3.70
2018-02-06T14:12:06.368Z,3.56
2018-02-06T14:14:33.785Z,3.65
2018-02-06T14:17:01.203Z,3.58
2018-02-06T14:19:28.624Z,3.64
2018-02-06T14:21:56.135Z,3.65
2018-02-06T14:24:23.560Z,3.64
2018-02-06T14:26:50.972Z,3.56
2018-02-06T14:29:18.396Z,3.64
2018-02-06T14:31:45.824Z,3.57
2018-02-06T14:34:13.281Z,3.60
2018-02-06T14:36:40.704Z,3.62
2018-02-06T14:39:08.136Z,3.62
2018-02-06T14:41:35.596Z,3.53
2018-02-06T14:44:03.017Z,3.51
2018-02-06T14:46:30.454Z,3.44
2018-02-06T14:48:57.876Z,3.51
2018-02-06T14:51:25.272Z,3.36
2018-02-06T14:53:52.716Z,3.26
2018-02-06T14:56:20.128Z,3.31
2018-02-06T14:58:47.544Z,3.37
2018-02-06T15:01:14.988Z,3.36
2018-02-06T15:03:42.424Z,3.30
2018-02-06T15:06:09.840Z,3.27
2018-02-06T15:08:37.301Z,3.27
2018-02-06T15:11:04.713Z,3.27
2018-02-06T15:13:32.121Z,3.12
2018-02-06T15:15:59.564Z,3.14
2018-02-06T15:18:26.980Z,3.03
2018-02-06T15:20:54.397Z,2.96
2018-02-06T15:23:21.856Z,2.99
2018-02-06T15:25:49.269Z,2.94
2018-02-06T15:28:16.693Z,2.94
2018-02-06T15:30:44.115Z,2.94
2018-02-06T15:33:11.528Z,2.95
2018-02-06T15:35:38.943Z,2.81
2018-02-06T15:38:06.378Z,2.75
2018-02-06T15:40:33.785Z,2.72
2018-02-06T15:43:01.193Z,2.76
2018-02-06T15:45:28.632Z,2.77
2018-02-06T15:47:56.041Z,2.72
2018-02-06T15:50:23.473Z,2.59
2018-02-06T15:52:50.907Z,2.56
2018-02-06T15:55:18.316Z,2.57
2018-02-06T15:57:45.729Z,2.53
2018-02-06T16:00:13.160Z,2.52
2018-02-06T16:02:40.573Z,2.45
2018-02-06T16:05:07.984Z,2.38
2018-02-06T16:07:35.433Z,2.48
2018-02-06T16:10:02.905Z,2.47
2018-02-06T16:12:30.354Z,2.42
2018-02-06T16:14:58.480Z,2.42
2018-02-06T16:17:25.917Z,2.39
2018-02-06T16:19:55.308Z,2.36
2018-02-06T16:22:22.744Z,2.33
2018-02-06T16:24:50.156Z,2.27
2018-02-06T16:27:17.578Z,2.26
2018-02-06T16:29:46.209Z,2.25
2018-02-06T16:32:13.621Z,2.19
2018-02-06T16:34:41.074Z,2.22
2018-02-06T16:37:08.704Z,2.16
2018-02-06T16:39:36.132Z,2.14
2018-02-06T16:42:03.565Z,2.14
2018-02-06T16:44:30.989Z,2.15
2018-02-06T16:46:58.402Z,2.21
2018-02-06T16:49:25.820Z,2.10
2018-02-06T16:51:53.300Z,2.01
2018-02-06T16:54:20.823Z,2.03
2018-02-06T16:56:48.196Z,2.14
2018-02-06T16:59:15.643Z,2.16
2018-02-06T17:01:43.049Z,2.19
2018-02-06T17:04:10.461Z,2.05
2018-02-06T17:06:37.888Z,2.00
2018-02-06T17:09:05.301Z,1.92
2018-02-06T17:11:32.721Z,1.87
2018-02-06T17:14:00.173Z,1.86
2018-02-06T17:16:27.612Z,1.95
2018-02-06T17:18:55.017Z,2.08
2018-02-06T17:21:22.449Z,2.17
2018-02-06T17:23:49.870Z,2.26
2018-02-06T17:26:17.276Z,2.24
2018-02-06T17:28:44.708Z,2.26
2018-02-06T17:31:12.125Z,2.26
2018-02-06T17:33:39.601Z,2.22
2018-02-06T17:36:07.055Z,2.17
2018-02-06T17:38:34.469Z,2.24
2018-02-06T17:41:01.918Z,2.24
2018-02-06T17:43:29.517Z,2.30
2018-02-06T17:45:56.929Z,2.31
2018-02-06T17:48:24.340Z,2.28
2018-02-06T17:50:51.780Z,2.30
2018-02-06T17:53:19.189Z,2.27
2018-02-06T17:55:46.606Z,2.20
2018-02-06T17:58:14.149Z,2.25
2018-02-06T18:00:41.553Z,2.28
2018-02-06T18:03:08.961Z,2.32
2018-02-06T18:05:37.527Z,2.38
2018-02-06T18:08:04.945Z,2.37
2018-02-06T18:10:32.393Z,2.39
2018-02-06T18:12:59.804Z,2.42
2018-02-06T18:15:27.218Z,2.41
2018-02-06T18:17:54.629Z,2.38
2018-02-06T18:20:22.108Z,2.41
2018-02-06T18:22:53.860Z,2.39
2018-02-06T18:25:21.317Z,2.44
2018-02-06T18:27:48.744Z,2.42
2018-02-06T18:30:16.153Z,2.40
2018-02-06T18:32:43.573Z,2.39
2018-02-06T18:35:10.977Z,2.35
2018-02-06T18:37:38.396Z,2.37
2018-02-06T18:40:05.829Z,2.36
2018-02-06T18:42:33.240Z,2.36
2018-02-06T18:45:00.690Z,2.35
2018-02-06T18:47:28.169Z,2.33
2018-02-06T18:49:55.577Z,2.41
2018-02-06T18:52:22.996Z,2.40
2018-02-06T18:54:50.561Z,2.36
2018-02-06T18:57:18.028Z,2.31
2018-02-06T18:59:46.217Z,2.27
2018-02-06T19:02:14.728Z,2.21
2018-02-06T19:04:42.200Z,2.21
2018-02-06T19:07:10.219Z,2.25
2018-02-06T19:09:38.278Z,2.24
2018-02-06T19:12:06.653Z,2.21
2018-02-06T19:14:34.145Z,2.20
2018-02-06T19:17:01.631Z,2.20
2018-02-06T19:19:29.054Z,2.22
2018-02-06T19:21:57.420Z,2.20
2018-02-06T19:24:24.900Z,2.11
2018-02-06T19:26:52.377Z,2.01
2018-02-06T19:29:19.789Z,1.94
2018-02-06T19:31:47.238Z,1.93
2018-02-06T19:34:15.543Z,1.83
2018-02-06T19:36:44.122Z,1.89
2018-02-06T19:39:12.305Z,1.85
2018-02-06T19:41:40.565Z,1.71
2018-02-06T19:44:07.984Z,1.70
2018-02-06T19:46:35.417Z,1.76
2018-02-06T19:49:02.904Z,1.73
2018-02-06T19:51:30.312Z,1.78
2018-02-06T19:53:57.741Z,1.79
2018-02-06T19:56:25.160Z,1.81
2018-02-06T19:58:52.576Z,1.85
2018-02-06T20:01:20.073Z,1.81
2018-02-06T20:03:47.485Z,1.78
2018-02-06T20:06:14.899Z,1.81
2018-02-06T20:08:42.336Z,1.78
2018-02-06T20:11:09.772Z,1.68
2018-02-06T20:13:38.257Z,1.75
2018-02-06T20:16:05.732Z,1.68
2018-02-06T20:18:33.172Z,1.64
2018-02-06T20:21:00.572Z,1.64
2018-02-06T20:23:28.000Z,1.60
2018-02-06T20:25:55.421Z,1.54
2018-02-06T20:28:22.838Z,1.46
2018-02-06T20:30:50.264Z,1.46
2018-02-06T20:33:17.689Z,1.40
2018-02-06T20:35:45.101Z,1.35
2018-02-06T20:38:12.537Z,1.39
2018-02-06T20:40:39.952Z,1.36
2018-02-06T20:43:07.360Z,1.32
2018-02-06T20:45:34.798Z,1.32
2018-02-06T20:48:02.202Z,1.32
2018-02-06T20:50:29.616Z,1.41
2018-02-06T20:52:57.060Z,1.42
2018-02-06T20:55:24.520Z,1.47
2018-02-06T20:57:51.877Z,1.52
2018-02-06T21:00:19.330Z,1.67
2018-02-06T21:02:46.744Z,1.78
2018-02-06T21:05:14.161Z,1.77
2018-02-06T21:07:41.601Z,1.77
2018-02-06T21:10:09.066Z,1.75
2018-02-06T21:12:36.473Z,1.69
2018-02-06T21:15:04.254Z,1.71
2018-02-06T21:17:31.680Z,1.79
2018-02-06T21:19:59.096Z,1.88
2018-02-06T21:22:26.528Z,1.86
2018-02-06T21:24:53.951Z,1.92
2018-02-06T21:27:21.363Z,1.96
2018-02-06T21:29:48.797Z,1.93
2018-02-06T21:32:16.226Z,1.99
2018-02-06T21:34:43.649Z,1.95
2018-02-06T21:37:11.105Z,1.85
2018-02-06T21:39:38.525Z,1.84
2018-02-06T21:42:05.945Z,1.82
2018-02-06T21:44:33.384Z,1.86
2018-02-06T21:47:00.784Z,1.86
2018-02-06T21:49:28.197Z,1.84
2018-02-06T21:51:55.637Z,1.84
2018-02-06T21:54:23.048Z,1.70
2018-02-06T21:56:50.531Z,1.71
2018-02-06T21:59:17.960Z,1.76
2018-02-06T22:01:45.422Z,1.70
2018-02-06T22:04:12.857Z,1.74
2018-02-06T22:06:41.116Z,1.72
2018-02-06T22:09:08.532Z,1.72
2018-02-06T22:11:35.949Z,1.70
2018-02-06T22:14:03.373Z,1.69
2018-02-06T22:16:30.784Z,1.66
2018-02-06T22:18:58.196Z,1.68
2018-02-06T22:21:25.636Z,1.68
2018-02-06T22:23:53.061Z,1.69
2018-02-06T22:26:20.481Z,1.61
2018-02-06T22:28:47.905Z,1.62
2018-02-06T22:31:15.321Z,1.59
2018-02-06T22:33:42.736Z,1.61
2018-02-06T22:36:10.160Z,1.57
2018-02-06T22:38:37.576Z,1.57
2018-02-06T22:41:04.992Z,1.44
2018-02-06T22:43:32.425Z,1.39
2018-02-06T22:45:59.845Z,1.38
2018-02-06T22:48:27.256Z,1.42
2018-02-06T22:50:54.693Z,1.44
2018-02-06T22:53:22.114Z,1.39
2018-02-06T22:55:49.520Z,1.35
2018-02-06T22:58:16.944Z,1.31
2018-02-06T23:00:44.353Z,1.32
2018-02-06T23:03:11.767Z,1.38
2018-02-06T23:05:39.196Z,1.31
2018-02-06T23:08:06.609Z,1.24
2018-02-06T23:10:34.022Z,1.28
2018-02-06T23:13:01.449Z,1.26
2018-02-06T23:15:28.873Z,1.16
2018-02-06T23:17:56.326Z,1.15
2018-02-06T23:20:23.744Z,1.22
2018-02-06T23:22:51.149Z,1.27
2018-02-06T23:25:18.611Z,1.27
2018-02-06T23:27:46.069Z,1.25
2018-02-06T23:30:13.516Z,1.35
2018-02-06T23:32:40.933Z,1.31
2018-02-06T23:35:08.361Z,1.33
2018-02-06T23:37:35.818Z,1.36
2018-02-06T23:40:03.236Z,1.24
2018-02-06T23:42:30.665Z,1.22
2018-02-06T23:44:58.124Z,1.25
2018-02-06T23:47:25.544Z,1.25
2018-02-06T23:49:52.991Z,1.31
2018-02-06T23:52:20.396Z,1.38
2018-02-06T23:54:48.240Z,1.45
2018-02-06T23:57:15.648Z,1.46
2018-02-06T23:59:43.060Z,1.42
